Wetterdaten: Freitag, 08.04.2011
Datum Zeit Temp. A. Feuchte A. Luftdruck Regen Wind Richtung Richtung Sonnenschein UV Solar Windben
08.04.2011 00:00 8,8 C 73 % 1024,7 hPa 0,0 mm 0,0 km/h (0 Bft) N 360 0 min 0 UV-I 0 W/m 1,6 km/h (1 Bft)
08.04.2011 00:10 8,6 C 74 % 1024,8 hPa 0,0 mm 0,0 km/h (0 Bft) N 0 0 min 0 UV-I 0 W/m 0,0 km/h (0 Bft)
08.04.2011 00:20 8,4 C 75 % 1024,8 hPa 0,0 mm 0,0 km/h (0 Bft) N 360 0 min 0 UV-I 0 W/m 1,6 km/h (1 Bft)
08.04.2011 00:30 8,3 C 76 % 1024,7 hPa 0,0 mm 0,0 km/h (0 Bft) N 360 0 min 0 UV-I 0 W/m 1,6 km/h (1 Bft)
08.04.2011 00:40 8,2 C 76 % 1024,7 hPa 0,0 mm 0,0 km/h (0 Bft) N 360 0 min 0 UV-I 0 W/m 1,6 km/h (1 Bft)
08.04.2011 00:50 8,1 C 77 % 1024,7 hPa 0,0 mm 0,0 km/h (0 Bft) N 360 0 min 0 UV-I 0 W/m 6,4 km/h (2 Bft)
08.04.2011 01:00 8,1 C 77 % 1024,9 hPa 0,0 mm 0,0 km/h (0 Bft) N-NW 337 0 min 0 UV-I 0 W/m 3,2 km/h (1 Bft)
08.04.2011 01:10 7,9 C 77 % 1024,7 hPa 0,0 mm 0,0 km/h (0 Bft) N-NW 337 0 min 0 UV-I 0 W/m 1,6 km/h (1 Bft)
08.04.2011 01:20 7,8 C 77 % 1024,8 hPa 0,0 mm 0,0 km/h (0 Bft) N-NW 337 0 min 0 UV-I 0 W/m 1,6 km/h (1 Bft)
08.04.2011 01:30 7,7 C 78 % 1024,9 hPa 0,0 mm 0,0 km/h (0 Bft) N-NW 337 0 min 0 UV-I 0 W/m 8,0 km/h (2 Bft)
08.04.2011 01:40 7,6 C 78 % 1024,9 hPa 0,0 mm 0,0 km/h (0 Bft) NW 315 0 min 0 UV-I 0 W/m 8,0 km/h (2 Bft)
08.04.2011 01:50 7,5 C 79 % 1025,0 hPa 0,0 mm 0,0 km/h (0 Bft) NW 315 0 min 0 UV-I 0 W/m 1,6 km/h (1 Bft)
08.04.2011 02:00 7,3 C 79 % 1024,9 hPa 0,0 mm 0,0 km/h (0 Bft) NW 315 0 min 0 UV-I 0 W/m 1,6 km/h (1 Bft)
08.04.2011 02:10 7,2 C 80 % 1025,0 hPa 0,0 mm 0,0 km/h (0 Bft) NW 315 0 min 0 UV-I 0 W/m 3,2 km/h (1 Bft)
08.04.2011 02:20 7,1 C 80 % 1025,0 hPa 0,0 mm 0,0 km/h (0 Bft) NW 315 0 min 0 UV-I 0 W/m 4,8 km/h (1 Bft)
08.04.2011 02:30 7,1 C 80 % 1025,0 hPa 0,0 mm 0,0 km/h (0 Bft) NW 315 0 min 0 UV-I 0 W/m 4,8 km/h (1 Bft)
08.04.2011 02:40 6,9 C 80 % 1025,0 hPa 0,0 mm 0,0 km/h (0 Bft) NW 315 0 min 0 UV-I 0 W/m 1,6 km/h (1 Bft)
08.04.2011 02:50 6,7 C 81 % 1024,8 hPa 0,0 mm 0,0 km/h (0 Bft) NW 315 0 min 0 UV-I 0 W/m 3,2 km/h (1 Bft)
08.04.2011 03:00 6,7 C 81 % 1024,7 hPa 0,0 mm 0,0 km/h (0 Bft) NW 315 0 min 0 UV-I 0 W/m 6,4 km/h (2 Bft)
08.04.2011 03:10 6,6 C 81 % 1024,6 hPa 0,0 mm 0,0 km/h (0 Bft) NW 315 0 min 0 UV-I 0 W/m 4,8 km/h (1 Bft)
08.04.2011 03:20 6,6 C 81 % 1024,7 hPa 0,0 mm 0,0 km/h (0 Bft) NW 315 0 min 0 UV-I 0 W/m 3,2 km/h (1 Bft)
08.04.2011 03:30 6,4 C 82 % 1024,5 hPa 0,0 mm 0,0 km/h (0 Bft) NW 315 0 min 0 UV-I 0 W/m 3,2 km/h (1 Bft)
08.04.2011 03:40 6,4 C 82 % 1024,6 hPa 0,0 mm 0,0 km/h (0 Bft) NW 315 0 min 0 UV-I 0 W/m 3,2 km/h (1 Bft)
08.04.2011 03:50 6,3 C 82 % 1024,6 hPa 0,0 mm 0,0 km/h (0 Bft) NW 315 0 min 0 UV-I 0 W/m 1,6 km/h (1 Bft)
08.04.2011 04:00 6,1 C 82 % 1024,5 hPa 0,0 mm 0,0 km/h (0 Bft) NW 315 0 min 0 UV-I 0 W/m 1,6 km/h (1 Bft)
08.04.2011 04:10 5,8 C 84 % 1024,5 hPa 0,0 mm 0,0 km/h (0 Bft) N 0 0 min 0 UV-I 0 W/m 0,0 km/h (0 Bft)
08.04.2011 04:20 5,6 C 84 % 1024,4 hPa 0,0 mm 0,0 km/h (0 Bft) NW 315 0 min 0 UV-I 0 W/m 1,6 km/h (1 Bft)
08.04.2011 04:30 5,4 C 85 % 1024,4 hPa 0,0 mm 0,0 km/h (0 Bft) NW 315 0 min 0 UV-I 0 W/m 1,6 km/h (1 Bft)
08.04.2011 04:40 5,4 C 85 % 1024,4 hPa 0,0 mm 0,0 km/h (0 Bft) NW 315 0 min 0 UV-I 0 W/m 1,6 km/h (1 Bft)
08.04.2011 04:50 5,3 C 85 % 1024,6 hPa 0,0 mm 0,0 km/h (0 Bft) NW 315 0 min 0 UV-I 0 W/m 1,6 km/h (1 Bft)
08.04.2011 05:00 5,2 C 85 % 1024,4 hPa 0,0 mm 0,0 km/h (0 Bft) N 0 0 min 0 UV-I 0 W/m 0,0 km/h (0 Bft)
08.04.2011 05:10 5,0 C 85 % 1024,4 hPa 0,0 mm 0,0 km/h (0 Bft) N 0 0 min 0 UV-I 0 W/m 0,0 km/h (0 Bft)
08.04.2011 05:20 4,8 C 86 % 1024,4 hPa 0,0 mm 0,0 km/h (0 Bft) N 0 0 min 0 UV-I 0 W/m 0,0 km/h (0 Bft)
08.04.2011 05:30 4,6 C 86 % 1024,5 hPa 0,0 mm 0,0 km/h (0 Bft) N 0 0 min 0 UV-I 0 W/m 0,0 km/h (0 Bft)
08.04.2011 05:40 4,5 C 87 % 1024,4 hPa 0,0 mm 0,0 km/h (0 Bft) N 0 0 min 0 UV-I 0 W/m 0,0 km/h (0 Bft)
08.04.2011 05:50 4,4 C 87 % 1024,4 hPa 0,0 mm 0,0 km/h (0 Bft) N 0 0 min 0 UV-I 0 W/m 0,0 km/h (0 Bft)
08.04.2011 06:00 4,3 C 87 % 1024,4 hPa 0,0 mm 0,0 km/h (0 Bft) N 0 0 min 0 UV-I 0 W/m 0,0 km/h (0 Bft)
08.04.2011 06:10 4,3 C 87 % 1024,3 hPa 0,0 mm 0,0 km/h (0 Bft) N 0 0 min 0 UV-I 0 W/m 0,0 km/h (0 Bft)
08.04.2011 06:20 4,3 C 87 % 1024,3 hPa 0,0 mm 0,0 km/h (0 Bft) NW 315 0 min 0 UV-I 0 W/m 1,6 km/h (1 Bft)
08.04.2011 06:30 4,3 C 87 % 1024,1 hPa 0,0 mm 0,0 km/h (0 Bft) NW 315 0 min 0 UV-I 0 W/m 1,6 km/h (1 Bft)
08.04.2011 06:40 4,3 C 87 % 1024,1 hPa 0,0 mm 0,0 km/h (0 Bft) N 0 0 min 0 UV-I 0 W/m 0,0 km/h (0 Bft)
08.04.2011 06:50 4,2 C 88 % 1024,1 hPa 0,0 mm 0,0 km/h (0 Bft) NW 315 0 min 0 UV-I 0 W/m 1,6 km/h (1 Bft)
08.04.2011 07:00 4,3 C 88 % 1023,9 hPa 0,0 mm 0,0 km/h (0 Bft) NW 315 0 min 0 UV-I 7 W/m 1,6 km/h (1 Bft)
08.04.2011 07:10 4,4 C 88 % 1024,1 hPa 0,0 mm 0,0 km/h (0 Bft) NW 315 0 min 0 UV-I 12 W/m 1,6 km/h (1 Bft)
08.04.2011 07:20 4,5 C 88 % 1024,2 hPa 0,0 mm 0,0 km/h (0 Bft) NW 315 0 min 0 UV-I 30 W/m 1,6 km/h (1 Bft)
08.04.2011 07:30 4,6 C 88 % 1024,5 hPa 0,0 mm 0,0 km/h (0 Bft) NW 315 10 min 0 UV-I 58 W/m 1,6 km/h (1 Bft)
08.04.2011 07:40 4,8 C 89 % 1024,6 hPa 0,0 mm 0,0 km/h (0 Bft) NW 315 10 min 0 UV-I 83 W/m 1,6 km/h (1 Bft)
08.04.2011 07:50 5,2 C 89 % 1024,6 hPa 0,0 mm 0,0 km/h (0 Bft) NW 315 10 min 0 UV-I 104 W/m 6,4 km/h (2 Bft)
08.04.2011 08:00 5,7 C 88 % 1024,7 hPa 0,0 mm 1,2 km/h (1 Bft) W-SW 242 10 min 0 UV-I 120 W/m 8,0 km/h (2 Bft)
08.04.2011 08:10 5,8 C 88 % 1024,8 hPa 0,0 mm 3,2 km/h (1 Bft) W-SW 247 10 min 1 UV-I 153 W/m 8,0 km/h (2 Bft)
08.04.2011 08:20 6,2 C 88 % 1024,6 hPa 0,0 mm 3,2 km/h (1 Bft) W-SW 247 10 min 1 UV-I 171 W/m 11,3 km/h (2 Bft)
08.04.2011 08:30 6,4 C 88 % 1024,6 hPa 0,0 mm 1,6 km/h (1 Bft) W-SW 247 10 min 1 UV-I 213 W/m 8,0 km/h (2 Bft)
08.04.2011 08:40 6,7 C 87 % 1024,3 hPa 0,0 mm 1,6 km/h (1 Bft) W-SW 247 10 min 1 UV-I 232 W/m 9,7 km/h (2 Bft)
08.04.2011 08:50 7,1 C 87 % 1024,4 hPa 0,0 mm 1,6 km/h (1 Bft) W-SW 247 10 min 1 UV-I 241 W/m 8,0 km/h (2 Bft)
08.04.2011 09:00 7,4 C 85 % 1024,3 hPa 0,0 mm 3,2 km/h (1 Bft) W 270 10 min 1 UV-I 287 W/m 11,3 km/h (2 Bft)
08.04.2011 09:10 7,9 C 83 % 1024,4 hPa 0,0 mm 3,2 km/h (1 Bft) W-SW 247 10 min 1 UV-I 301 W/m 14,5 km/h (3 Bft)
08.04.2011 09:20 8,3 C 82 % 1024,4 hPa 0,0 mm 3,2 km/h (1 Bft) W 270 10 min 1 UV-I 334 W/m 14,5 km/h (3 Bft)
08.04.2011 09:30 8,7 C 80 % 1024,4 hPa 0,0 mm 4,8 km/h (1 Bft) W 270 10 min 2 UV-I 371 W/m 11,3 km/h (2 Bft)
08.04.2011 09:40 8,9 C 78 % 1024,4 hPa 0,0 mm 6,4 km/h (2 Bft) W 270 10 min 2 UV-I 397 W/m 16,1 km/h (3 Bft)
08.04.2011 09:50 9,1 C 76 % 1024,4 hPa 0,0 mm 4,8 km/h (1 Bft) W 270 10 min 2 UV-I 436 W/m 16,1 km/h (3 Bft)
08.04.2011 10:00 9,3 C 77 % 1024,4 hPa 0,0 mm 4,8 km/h (1 Bft) W-SW 247 10 min 2 UV-I 450 W/m 14,5 km/h (3 Bft)
08.04.2011 10:10 9,7 C 76 % 1024,6 hPa 0,0 mm 4,8 km/h (1 Bft) W 270 10 min 2 UV-I 512 W/m 16,1 km/h (3 Bft)
08.04.2011 10:20 10,1 C 75 % 1024,7 hPa 0,0 mm 4,8 km/h (1 Bft) W 270 10 min 3 UV-I 527 W/m 12,9 km/h (3 Bft)
08.04.2011 10:30 10,3 C 74 % 1024,8 hPa 0,0 mm 4,8 km/h (1 Bft) W-SW 247 10 min 3 UV-I 619 W/m 16,1 km/h (3 Bft)
08.04.2011 10:40 10,6 C 71 % 1024,7 hPa 0,0 mm 6,4 km/h (2 Bft) W 270 10 min 3 UV-I 631 W/m 17,7 km/h (3 Bft)
08.04.2011 10:50 10,5 C 71 % 1024,8 hPa 0,0 mm 4,8 km/h (1 Bft) W 270 10 min 3 UV-I 628 W/m 16,1 km/h (3 Bft)
08.04.2011 11:00 10,9 C 69 % 1024,7 hPa 0,0 mm 4,8 km/h (1 Bft) W-NW 292 10 min 3 UV-I 705 W/m 16,1 km/h (3 Bft)
08.04.2011 11:10 10,9 C 70 % 1024,6 hPa 0,0 mm 4,8 km/h (1 Bft) W 270 10 min 4 UV-I 666 W/m 17,7 km/h (3 Bft)
08.04.2011 11:20 11,3 C 67 % 1024,4 hPa 0,0 mm 4,8 km/h (1 Bft) W 270 10 min 4 UV-I 635 W/m 14,5 km/h (3 Bft)
08.04.2011 11:30 11,6 C 65 % 1024,4 hPa 0,0 mm 3,2 km/h (1 Bft) W 270 10 min 4 UV-I 640 W/m 11,3 km/h (2 Bft)
08.04.2011 11:40 11,9 C 64 % 1024,2 hPa 0,0 mm 4,8 km/h (1 Bft) W-NW 292 10 min 4 UV-I 659 W/m 11,3 km/h (2 Bft)
08.04.2011 11:50 11,9 C 62 % 1023,8 hPa 0,0 mm 4,8 km/h (1 Bft) W-SW 247 10 min 4 UV-I 673 W/m 19,3 km/h (3 Bft)
08.04.2011 12:00 12,3 C 59 % 1023,8 hPa 0,0 mm 8,0 km/h (2 Bft) W 270 10 min 5 UV-I 693 W/m 20,9 km/h (4 Bft)
08.04.2011 12:10 12,3 C 59 % 1023,7 hPa 0,0 mm 4,8 km/h (1 Bft) W 270 10 min 5 UV-I 705 W/m 14,5 km/h (3 Bft)
08.04.2011 12:20 12,4 C 57 % 1023,8 hPa 0,0 mm 6,4 km/h (2 Bft) W 270 10 min 5 UV-I 719 W/m 17,7 km/h (3 Bft)
08.04.2011 12:30 12,7 C 57 % 1023,6 hPa 0,0 mm 6,4 km/h (2 Bft) W 270 10 min 5 UV-I 729 W/m 17,7 km/h (3 Bft)
08.04.2011 12:40 13,1 C 57 % 1023,6 hPa 0,0 mm 6,4 km/h (2 Bft) W 270 10 min 5 UV-I 740 W/m 17,7 km/h (3 Bft)
08.04.2011 12:50 13,1 C 56 % 1023,4 hPa 0,0 mm 8,0 km/h (2 Bft) W 270 10 min 5 UV-I 761 W/m 22,5 km/h (4 Bft)
08.04.2011 13:00 13,6 C 56 % 1023,3 hPa 0,0 mm 8,0 km/h (2 Bft) W 270 10 min 5 UV-I 765 W/m 22,5 km/h (4 Bft)
08.04.2011 13:10 13,8 C 56 % 1023,2 hPa 0,0 mm 8,0 km/h (2 Bft) W 270 10 min 5 UV-I 772 W/m 22,5 km/h (4 Bft)
08.04.2011 13:20 14,1 C 55 % 1023,1 hPa 0,0 mm 6,4 km/h (2 Bft) W 270 10 min 5 UV-I 765 W/m 19,3 km/h (3 Bft)
08.04.2011 13:30 14,2 C 56 % 1022,9 hPa 0,0 mm 9,7 km/h (2 Bft) W 270 10 min 5 UV-I 765 W/m 25,7 km/h (4 Bft)
08.04.2011 13:40 14,2 C 56 % 1022,6 hPa 0,0 mm 11,3 km/h (2 Bft) W-SW 247 10 min 5 UV-I 765 W/m 24,1 km/h (4 Bft)
08.04.2011 13:50 14,4 C 55 % 1022,5 hPa 0,0 mm 11,3 km/h (2 Bft) W-SW 247 10 min 5 UV-I 763 W/m 29,0 km/h (5 Bft)
08.04.2011 14:00 14,8 C 53 % 1022,4 hPa 0,0 mm 8,0 km/h (2 Bft) W 270 10 min 5 UV-I 763 W/m 24,1 km/h (4 Bft)
08.04.2011 14:10 14,6 C 55 % 1022,4 hPa 0,0 mm 11,3 km/h (2 Bft) W 270 10 min 5 UV-I 756 W/m 25,7 km/h (4 Bft)
08.04.2011 14:20 14,9 C 55 % 1022,2 hPa 0,0 mm 9,7 km/h (2 Bft) W 270 10 min 5 UV-I 752 W/m 24,1 km/h (4 Bft)
08.04.2011 14:30 15,2 C 55 % 1022,0 hPa 0,0 mm 9,7 km/h (2 Bft) W 270 10 min 5 UV-I 747 W/m 19,3 km/h (3 Bft)
08.04.2011 14:40 15,5 C 54 % 1021,8 hPa 0,0 mm 9,7 km/h (2 Bft) W 270 10 min 5 UV-I 737 W/m 25,7 km/h (4 Bft)
08.04.2011 14:50 15,3 C 55 % 1021,7 hPa 0,0 mm 11,3 km/h (2 Bft) W 270 10 min 5 UV-I 728 W/m 27,4 km/h (4 Bft)
08.04.2011 15:00 15,5 C 55 % 1021,6 hPa 0,0 mm 9,7 km/h (2 Bft) W 270 10 min 4 UV-I 721 W/m 22,5 km/h (4 Bft)
08.04.2011 15:10 15,7 C 55 % 1021,4 hPa 0,0 mm 11,3 km/h (2 Bft) W 270 10 min 4 UV-I 707 W/m 30,6 km/h (5 Bft)
08.04.2011 15:20 15,9 C 54 % 1021,3 hPa 0,0 mm 9,7 km/h (2 Bft) W 270 10 min 4 UV-I 691 W/m 27,4 km/h (4 Bft)
08.04.2011 15:30 16,2 C 54 % 1021,2 hPa 0,0 mm 9,7 km/h (2 Bft) W 270 10 min 4 UV-I 679 W/m 20,9 km/h (4 Bft)
08.04.2011 15:40 16,3 C 55 % 1021,1 hPa 0,0 mm 11,3 km/h (2 Bft) W 270 10 min 4 UV-I 663 W/m 29,0 km/h (5 Bft)
08.04.2011 15:50 16,3 C 53 % 1021,1 hPa 0,0 mm 11,3 km/h (2 Bft) W 270 10 min 3 UV-I 675 W/m 29,0 km/h (5 Bft)
08.04.2011 16:00 16,2 C 53 % 1021,0 hPa 0,0 mm 9,5 km/h (2 Bft) W 261 10 min 3 UV-I 500 W/m 24,1 km/h (4 Bft)
08.04.2011 16:10 16,2 C 54 % 1020,9 hPa 0,0 mm 11,3 km/h (2 Bft) W 270 10 min 3 UV-I 622 W/m 30,6 km/h (5 Bft)
08.04.2011 16:20 16,4 C 54 % 1020,9 hPa 0,0 mm 11,3 km/h (2 Bft) W 270 10 min 3 UV-I 628 W/m 27,4 km/h (4 Bft)
08.04.2011 16:30 16,6 C 54 % 1020,7 hPa 0,0 mm 11,3 km/h (2 Bft) W 270 10 min 3 UV-I 566 W/m 30,6 km/h (5 Bft)
08.04.2011 16:40 16,9 C 53 % 1020,8 hPa 0,0 mm 11,3 km/h (2 Bft) W 270 10 min 2 UV-I 554 W/m 30,6 km/h (5 Bft)
08.04.2011 16:50 16,9 C 53 % 1020,7 hPa 0,0 mm 11,3 km/h (2 Bft) W 270 10 min 2 UV-I 540 W/m 25,7 km/h (4 Bft)
08.04.2011 17:00 16,9 C 52 % 1020,7 hPa 0,0 mm 9,7 km/h (2 Bft) W-NW 292 10 min 2 UV-I 494 W/m 27,4 km/h (4 Bft)
08.04.2011 17:10 16,9 C 53 % 1020,7 hPa 0,0 mm 11,3 km/h (2 Bft) W 270 10 min 2 UV-I 466 W/m 24,1 km/h (4 Bft)
08.04.2011 17:20 16,9 C 55 % 1020,5 hPa 0,0 mm 9,7 km/h (2 Bft) W 270 10 min 2 UV-I 445 W/m 27,4 km/h (4 Bft)
08.04.2011 17:30 16,9 C 55 % 1020,6 hPa 0,0 mm 12,9 km/h (3 Bft) W-NW 292 10 min 2 UV-I 427 W/m 27,4 km/h (4 Bft)
08.04.2011 17:40 16,6 C 56 % 1020,6 hPa 0,0 mm 9,7 km/h (2 Bft) W 270 10 min 1 UV-I 408 W/m 25,7 km/h (4 Bft)
08.04.2011 17:50 16,7 C 57 % 1020,4 hPa 0,0 mm 8,0 km/h (2 Bft) W-NW 292 10 min 1 UV-I 376 W/m 25,7 km/h (4 Bft)
08.04.2011 18:00 16,6 C 58 % 1020,4 hPa 0,0 mm 11,3 km/h (2 Bft) W 270 10 min 1 UV-I 339 W/m 25,7 km/h (4 Bft)
08.04.2011 18:10 16,3 C 59 % 1020,4 hPa 0,0 mm 9,7 km/h (2 Bft) W 270 10 min 1 UV-I 267 W/m 27,4 km/h (4 Bft)
08.04.2011 18:20 16,4 C 59 % 1020,1 hPa 0,0 mm 9,7 km/h (2 Bft) W 270 10 min 1 UV-I 264 W/m 20,9 km/h (4 Bft)
08.04.2011 18:30 16,4 C 60 % 1020,3 hPa 0,0 mm 8,0 km/h (2 Bft) W 270 10 min 1 UV-I 229 W/m 22,5 km/h (4 Bft)
08.04.2011 18:40 16,4 C 61 % 1020,3 hPa 0,0 mm 8,0 km/h (2 Bft) W 270 10 min 1 UV-I 209 W/m 24,1 km/h (4 Bft)
08.04.2011 18:50 16,2 C 61 % 1020,4 hPa 0,0 mm 9,7 km/h (2 Bft) W 270 10 min 1 UV-I 176 W/m 27,4 km/h (4 Bft)
08.04.2011 19:00 16,2 C 62 % 1020,3 hPa 0,0 mm 9,7 km/h (2 Bft) W 270 10 min 0 UV-I 139 W/m 29,0 km/h (5 Bft)
08.04.2011 19:10 16,1 C 62 % 1020,3 hPa 0,0 mm 9,7 km/h (2 Bft) W 270 10 min 0 UV-I 113 W/m 24,1 km/h (4 Bft)
08.04.2011 19:20 15,9 C 64 % 1020,3 hPa 0,0 mm 8,0 km/h (2 Bft) W 270 10 min 0 UV-I 67 W/m 19,3 km/h (3 Bft)
08.04.2011 19:30 15,7 C 64 % 1020,2 hPa 0,0 mm 6,4 km/h (2 Bft) W 270 0 min 0 UV-I 39 W/m 27,4 km/h (4 Bft)
08.04.2011 19:40 15,6 C 64 % 1020,2 hPa 0,0 mm 6,4 km/h (2 Bft) W-NW 292 0 min 0 UV-I 30 W/m 17,7 km/h (3 Bft)
08.04.2011 19:50 15,4 C 64 % 1020,4 hPa 0,0 mm 4,8 km/h (1 Bft) W-NW 292 10 min 0 UV-I 23 W/m 20,9 km/h (4 Bft)
08.04.2011 20:00 15,2 C 62 % 1020,5 hPa 0,0 mm 8,0 km/h (2 Bft) W-NW 292 0 min 0 UV-I 16 W/m 22,5 km/h (4 Bft)
08.04.2011 20:10 15,1 C 61 % 1020,6 hPa 0,0 mm 8,0 km/h (2 Bft) W-NW 292 0 min 0 UV-I 7 W/m 24,1 km/h (4 Bft)
08.04.2011 20:20 14,9 C 61 % 1020,9 hPa 0,0 mm 8,0 km/h (2 Bft) W-NW 292 0 min 0 UV-I 0 W/m 24,1 km/h (4 Bft)
08.04.2011 20:30 14,6 C 61 % 1021,0 hPa 0,0 mm 8,0 km/h (2 Bft) W-NW 292 0 min 0 UV-I 0 W/m 22,5 km/h (4 Bft)
08.04.2011 20:40 14,4 C 61 % 1021,1 hPa 0,0 mm 6,4 km/h (2 Bft) W-NW 292 0 min 0 UV-I 0 W/m 22,5 km/h (4 Bft)
08.04.2011 20:50 14,1 C 62 % 1021,3 hPa 0,0 mm 6,4 km/h (2 Bft) W-NW 292 0 min 0 UV-I 0 W/m 20,9 km/h (4 Bft)
08.04.2011 21:00 13,9 C 62 % 1021,4 hPa 0,0 mm 4,8 km/h (1 Bft) W-NW 292 0 min 0 UV-I 0 W/m 19,3 km/h (3 Bft)
08.04.2011 21:10 13,7 C 63 % 1021,4 hPa 0,0 mm 6,4 km/h (2 Bft) W-NW 292 0 min 0 UV-I 0 W/m 19,3 km/h (3 Bft)
08.04.2011 21:20 13,6 C 62 % 1021,4 hPa 0,0 mm 6,4 km/h (2 Bft) W-NW 292 0 min 0 UV-I 0 W/m 19,3 km/h (3 Bft)
08.04.2011 21:30 13,3 C 63 % 1021,6 hPa 0,0 mm 4,8 km/h (1 Bft) W 270 0 min 0 UV-I 0 W/m 17,7 km/h (3 Bft)
08.04.2011 21:40 13,1 C 63 % 1021,8 hPa 0,0 mm 8,0 km/h (2 Bft) W-NW 292 0 min 0 UV-I 0 W/m 25,7 km/h (4 Bft)
08.04.2011 21:50 12,9 C 63 % 1021,8 hPa 0,0 mm 8,0 km/h (2 Bft) W-NW 292 0 min 0 UV-I 0 W/m 25,7 km/h (4 Bft)
08.04.2011 22:00 12,8 C 64 % 1021,9 hPa 0,0 mm 6,4 km/h (2 Bft) NW 315 0 min 0 UV-I 0 W/m 19,3 km/h (3 Bft)
08.04.2011 22:10 12,6 C 67 % 1021,9 hPa 0,0 mm 6,4 km/h (2 Bft) W-NW 292 0 min 0 UV-I 0 W/m 19,3 km/h (3 Bft)
08.04.2011 22:20 12,3 C 72 % 1021,9 hPa 0,0 mm 8,0 km/h (2 Bft) W-NW 292 0 min 0 UV-I 0 W/m 24,1 km/h (4 Bft)
08.04.2011 22:30 12,1 C 71 % 1021,9 hPa 0,0 mm 8,0 km/h (2 Bft) W-NW 292 0 min 0 UV-I 0 W/m 19,3 km/h (3 Bft)
08.04.2011 22:40 11,9 C 73 % 1022,1 hPa 0,0 mm 8,0 km/h (2 Bft) W-NW 292 0 min 0 UV-I 0 W/m 29,0 km/h (5 Bft)
08.04.2011 22:50 11,7 C 74 % 1022,2 hPa 0,0 mm 9,7 km/h (2 Bft) W-NW 292 0 min 0 UV-I 0 W/m 24,1 km/h (4 Bft)
08.04.2011 23:00 11,6 C 74 % 1022,2 hPa 0,0 mm 9,7 km/h (2 Bft) W-NW 292 0 min 0 UV-I 0 W/m 27,4 km/h (4 Bft)
08.04.2011 23:10 11,4 C 74 % 1022,4 hPa 0,0 mm 9,7 km/h (2 Bft) W-NW 292 0 min 0 UV-I 0 W/m 24,1 km/h (4 Bft)
08.04.2011 23:20 11,3 C 75 % 1022,3 hPa 0,0 mm 8,0 km/h (2 Bft) NW 315 0 min 0 UV-I 0 W/m 29,0 km/h (5 Bft)
08.04.2011 23:30 11,1 C 76 % 1022,4 hPa 0,0 mm 4,8 km/h (1 Bft) W-NW 292 0 min 0 UV-I 0 W/m 20,9 km/h (4 Bft)
08.04.2011 23:40 10,8 C 77 % 1022,4 hPa 0,0 mm 3,2 km/h (1 Bft) W-NW 292 0 min 0 UV-I 0 W/m 19,3 km/h (3 Bft)
08.04.2011 23:50 10,7 C 78 % 1022,5 hPa 0,0 mm 3,2 km/h (1 Bft) W-NW 292 0 min 0 UV-I 0 W/m 9,7 km/h (2 Bft)
_ Min-Zeit 06:40 17:00 18:20 - 00:00 - - - - - 00:10
Minimum _ 4,2 C 52 % 1020,1 hPa - 0,0 km/h (0 Bft) - - - - - 0,0 km/h (0 Bft)
_ Max-Zeit 17:10 07:40 01:50 00:00 17:30 - - 07:30 13:00 13:10 15:10
Maximum _ 17,1 C 89 % 1025,0 hPa 0,0 mm 12,9 km/h
W-NW (3 Bft)
- - 10 min 5 UV-I 772 W/m 30,6 km/h
W (5 Bft)
Durchschnitt _ 10,8 C 70 % 1023,1 hPa #0,0 mm 4,9 km/h (1 Bft) W - #12:10 h 3 UV-I 455 W/m 14,8 km/h (3 Bft)